Terminal Aerodrome Forecast
Issued by NWS Buffalo, NY

Current Version | Previous Version | Text Only | Print | Product List | Glossary On
Versions: 1 2 3 4 5 6 7 8 9 10 11 12 13 14 15 16 17 18 19 20 21 22 23 24 25
000
FTUS41 KBUF 270900 AAA
TAFROC
TAF AMD
KROC 270909Z 2709/2806 34004KT P6SM VCSH BKN017 OVC023
     FM271200 29004KT P6SM BKN025
     FM271400 29006KT P6SM BKN035
     FM271700 29009KT P6SM SCT050 SCT100
     FM280000 30007KT P6SM SCT150
     FM280500 29008KT P6SM SCT250=

USA.gov is the U.S. government's official web portal to all federal, state and local government web resources and services.